Time;durP1;ratioP1;P1;durP2;ratioP2;P2;SDS_P1;SDS_P2;PMS_P1;PMS_P2;Temp;Humidity;BMP_temperature;BMP_pressure;BME280_temperature;BME280_humidity;BME280_pressure;Samples;Min_cycle;Max_cycle;Signal;HPM_P1;HPM_P2
2023/08/30 00:01:46;;;;;;;;;;;;;;;22.61;nan;100727.47;5063766;28;20552;-86
2023/08/30 00:04:12;;;;;;;;;;;;;;;22.63;nan;100727.16;5060433;28;19916;-86
2023/08/30 00:06:37;;;;;;;;;;;;;;;22.65;nan;100717.50;5057927;28;19916;-85
2023/08/30 00:09:02;;;;;;;;;;;;;;;22.66;nan;100716.38;5060132;28;20328;-86
2023/08/30 00:11:30;;;;;;;;;;;;;;;22.66;nan;100713.66;5058346;28;20316;-86
2023/08/30 00:14:02;;;;;;;;;;;;;;;22.67;nan;100719.91;5059022;28;19974;-86
2023/08/30 00:16:27;;;;;;;;;;;;;;;22.66;nan;100713.66;5060071;28;19916;-86
2023/08/30 00:18:52;;;;;;;;;;;;;;;22.67;nan;100715.25;5062128;28;19943;-86
2023/08/30 00:21:18;;;;;;;;;;;;;;;22.68;nan;100713.31;5061389;28;19923;-86
2023/08/30 00:23:43;;;;;;;;;;;;;;;22.68;nan;100710.59;5062530;28;20383;-86
2023/08/30 00:26:08;;;;;;;;;;;;;;;22.68;nan;100707.84;5058165;28;19931;-86
2023/08/30 00:28:34;;;;;;;;;;;;;;;22.67;nan;100698.84;5059478;28;20062;-86
2023/08/30 00:30:59;;;;;;;;;;;;;;;22.68;nan;100705.13;5063151;28;19916;-86
2023/08/30 00:33:24;;;;;;;;;;;;;;;22.68;nan;100694.19;5060477;28;19924;-86
2023/08/30 00:35:57;;;;;;;;;;;;;;;22.68;nan;100699.66;5061466;28;19917;-86
2023/08/30 00:38:22;;;;;;;;;;;;;;;22.65;nan;100689.41;5063606;28;19924;-85
2023/08/30 00:40:47;;;;;;;;;;;;;;;22.61;nan;100695.50;5058755;28;20497;-86
2023/08/30 00:43:13;;;;;;;;;;;;;;;22.57;nan;100697.28;5064611;28;19923;-85
2023/08/30 00:45:40;;;;;;;;;;;;;;;22.55;nan;100702.28;5060041;28;20140;-86
2023/08/30 00:48:05;;;;;;;;;;;;;;;22.53;nan;100707.28;5061741;28;19921;-86
2023/08/30 00:50:31;;;;;;;;;;;;;;;22.54;nan;100710.81;5062711;28;19923;-86
2023/08/30 00:52:56;;;;;;;;;;;;;;;22.52;nan;100724.78;5064876;28;20437;-86
2023/08/30 00:55:21;;;;;;;;;;;;;;;22.53;nan;100712.75;5062258;28;20330;-85
2023/08/30 00:57:46;;;;;;;;;;;;;;;22.57;nan;100716.41;5065519;28;19927;-86
2023/08/30 01:00:12;;;;;;;;;;;;;;;22.59;nan;100708.69;5061180;28;19917;-86
2023/08/30 01:02:37;;;;;;;;;;;;;;;22.62;nan;100715.41;5060677;28;19927;-86
2023/08/30 01:05:03;;;;;;;;;;;;;;;22.64;nan;100723.31;5065477;28;19973;-86
2023/08/30 01:07:28;;;;;;;;;;;;;;;22.64;nan;100721.38;5061737;28;19932;-86
2023/08/30 01:09:54;;;;;;;;;;;;;;;22.64;nan;100726.03;5063403;28;19920;-86
2023/08/30 01:12:24;;;;;;;;;;;;;;;22.63;nan;100724.44;5061019;28;19924;-85
2023/08/30 01:14:49;;;;;;;;;;;;;;;22.63;nan;100724.44;5059796;28;19928;-87
2023/08/30 01:17:16;;;;;;;;;;;;;;;22.64;nan;100720.56;5062026;28;19921;-86
2023/08/30 01:19:46;;;;;;;;;;;;;;;22.60;nan;100729.41;5066907;28;19955;-85
2023/08/30 01:22:34;;;;;;;;;;;;;;;22.61;nan;100736.47;5063798;28;19970;-86
2023/08/30 01:25:08;;;;;;;;;;;;;;;22.65;nan;100738.56;5066229;28;20281;-86
2023/08/30 01:27:35;;;;;;;;;;;;;;;22.66;nan;100742.88;5063718;28;20372;-86
2023/08/30 01:30:01;;;;;;;;;;;;;;;22.66;nan;100729.22;5067074;28;20411;-86
2023/08/30 01:32:28;;;;;;;;;;;;;;;22.68;nan;100727.78;5064340;28;19966;-86
2023/08/30 01:34:55;;;;;;;;;;;;;;;22.70;nan;100730.16;5067369;28;20011;-86
2023/08/30 01:37:21;;;;;;;;;;;;;;;22.70;nan;100730.97;5067127;28;19921;-86
2023/08/30 01:39:47;;;;;;;;;;;;;;;22.73;nan;100726.78;5065293;28;19931;-86
2023/08/30 01:42:14;;;;;;;;;;;;;;;22.74;nan;100720.97;5063477;28;20351;-86
2023/08/30 01:44:41;;;;;;;;;;;;;;;22.76;nan;100720.66;5061727;28;21416;-86
2023/08/30 01:47:07;;;;;;;;;;;;;;;22.76;nan;100718.72;5061942;28;19963;-86
2023/08/30 01:49:33;;;;;;;;;;;;;;;22.74;nan;100709.25;5064570;28;20343;-86
2023/08/30 01:51:58;;;;;;;;;;;;;;;22.72;nan;100717.78;5064076;28;19920;-86
2023/08/30 01:54:24;;;;;;;;;;;;;;;22.73;nan;100721.31;5068127;28;19924;-86
2023/08/30 01:56:49;;;;;;;;;;;;;;;22.72;nan;100719.72;5067289;28;19920;-86
2023/08/30 01:59:15;;;;;;;;;;;;;;;22.71;nan;100716.19;5063442;28;19925;-86
2023/08/30 02:01:40;;;;;;;;;;;;;;;22.71;nan;100721.63;5063148;28;19920;-85
2023/08/30 02:04:05;;;;;;;;;;;;;;;22.66;nan;100727.31;5060482;28;19940;-86
2023/08/30 02:06:35;;;;;;;;;;;;;;;22.64;nan;100731.50;5066709;28;20392;-86
2023/08/30 02:09:14;;;;;;;;;;;;;;;22.66;nan;100723.78;5068261;28;19921;-86
2023/08/30 02:11:42;;;;;;;;;;;;;;;22.68;nan;100721.50;5061806;28;19924;-85
2023/08/30 02:14:10;;;;;;;;;;;;;;;22.68;nan;100722.31;5062000;28;20012;-87
2023/08/30 02:16:36;;;;;;;;;;;;;;;22.70;nan;100708.31;5064219;28;20003;-86
2023/08/30 02:19:02;;;;;;;;;;;;;;;22.68;nan;100708.66;5060235;28;19925;-86
2023/08/30 02:21:27;;;;;;;;;;;;;;;22.67;nan;100715.25;5065349;28;20493;-86
2023/08/30 02:23:53;;;;;;;;;;;;;;;22.63;nan;100713.50;5067053;28;19917;-86
2023/08/30 02:26:19;;;;;;;;;;;;;;;22.63;nan;100708.06;5064792;28;19924;-86
2023/08/30 02:28:44;;;;;;;;;;;;;;;22.65;nan;100705.78;5061752;28;19920;-85
2023/08/30 02:31:10;;;;;;;;;;;;;;;22.65;nan;100703.06;5065613;28;20405;-86
2023/08/30 02:33:37;;;;;;;;;;;;;;;22.63;nan;100697.94;5062646;28;20522;-86
2023/08/30 02:36:02;;;;;;;;;;;;;;;22.64;nan;100704.19;5067317;28;19959;-85
2023/08/30 02:38:27;;;;;;;;;;;;;;;22.60;nan;100688.44;5064447;28;19960;-86
2023/08/30 02:40:53;;;;;;;;;;;;;;;22.60;nan;100695.84;5066198;28;19963;-86
2023/08/30 02:43:18;;;;;;;;;;;;;;;22.59;nan;100691.50;5060992;28;19924;-85
2023/08/30 02:45:43;;;;;;;;;;;;;;;22.57;nan;100683.63;5059394;28;19924;-86
2023/08/30 02:48:09;;;;;;;;;;;;;;;22.53;nan;100677.25;5056053;28;19999;-86
2023/08/30 02:50:34;;;;;;;;;;;;;;;22.56;nan;100678.50;5062673;28;20222;-86
2023/08/30 02:52:59;;;;;;;;;;;;;;;22.53;nan;100682.72;5060589;28;20364;-85
2023/08/30 02:55:24;;;;;;;;;;;;;;;22.48;nan;100674.72;5064869;28;19942;-86
2023/08/30 02:57:50;;;;;;;;;;;;;;;22.47;nan;100684.03;5058687;28;19920;-86
2023/08/30 03:00:15;;;;;;;;;;;;;;;22.49;nan;100681.78;5064918;28;20423;-86
2023/08/30 03:02:41;;;;;;;;;;;;;;;22.52;nan;100686.56;5064992;28;19916;-86
2023/08/30 03:05:07;;;;;;;;;;;;;;;22.53;nan;100679.97;5058816;28;19917;-86
2023/08/30 03:07:32;;;;;;;;;;;;;;;22.57;nan;100678.19;5061130;28;19916;-86
2023/08/30 03:09:57;;;;;;;;;;;;;;;22.59;nan;100680.59;5063754;28;20062;-86
2023/08/30 03:12:22;;;;;;;;;;;;;;;22.62;nan;100679.91;5062412;28;20400;-86
2023/08/30 03:14:48;;;;;;;;;;;;;;;22.63;nan;100678.00;5059966;28;19917;-86
2023/08/30 03:17:14;;;;;;;;;;;;;;;22.66;nan;100677.34;5055341;28;20413;-85
2023/08/30 03:19:39;;;;;;;;;;;;;;;22.69;nan;100676.69;5062069;28;19931;-86
2023/08/30 03:22:04;;;;;;;;;;;;;;;22.69;nan;100684.88;5054919;28;20015;-85
2023/08/30 03:24:30;;;;;;;;;;;;;;;22.69;nan;100676.69;5058955;28;20277;-86
2023/08/30 03:26:55;;;;;;;;;;;;;;;22.67;nan;100678.94;5055696;28;20372;-86
2023/08/30 03:29:20;;;;;;;;;;;;;;;22.69;nan;100679.41;5057361;28;19920;-86
2023/08/30 03:31:46;;;;;;;;;;;;;;;22.61;nan;100679.13;5064008;28;19916;-86
2023/08/30 03:34:11;;;;;;;;;;;;;;;22.62;nan;100679.91;5058285;28;19978;-86
2023/08/30 03:36:37;;;;;;;;;;;;;;;22.63;nan;100697.13;5058095;28;19925;-85
2023/08/30 03:39:02;;;;;;;;;;;;;;;22.65;nan;100695.66;5057710;28;19921;-86
2023/08/30 03:41:28;;;;;;;;;;;;;;;22.66;nan;100689.06;5057971;28;19924;-86
2023/08/30 03:43:53;;;;;;;;;;;;;;;22.69;nan;100688.41;5062619;28;20301;-85
2023/08/30 03:46:18;;;;;;;;;;;;;;;22.71;nan;100693.53;5060212;28;20816;-85
2023/08/30 03:48:43;;;;;;;;;;;;;;;22.72;nan;100698.66;5059911;28;19920;-86
2023/08/30 03:51:09;;;;;;;;;;;;;;;22.71;nan;100699.78;5057285;28;19916;-86
2023/08/30 03:53:34;;;;;;;;;;;;;;;22.73;nan;100704.91;5064810;28;20353;-86
2023/08/30 03:55:59;;;;;;;;;;;;;;;22.68;nan;100719.56;5062737;28;19920;-86
2023/08/30 03:58:25;;;;;;;;;;;;;;;22.68;nan;100713.31;5057093;28;20428;-86
2023/08/30 04:00:50;;;;;;;;;;;;;;;22.66;nan;100713.66;5059281;28;19916;-86
2023/08/30 04:03:16;;;;;;;;;;;;;;;22.66;nan;100705.44;5056622;28;19971;-86
2023/08/30 04:05:41;;;;;;;;;;;;;;;22.69;nan;100709.44;5058907;28;20438;-85
2023/08/30 04:08:07;;;;;;;;;;;;;;;22.65;nan;100703.84;5063392;28;20445;-86
2023/08/30 04:10:36;;;;;;;;;;;;;;;22.68;nan;100697.72;5063662;28;20380;-86
2023/08/30 04:13:01;;;;;;;;;;;;;;;22.68;nan;100705.91;5059938;28;19924;-86
2023/08/30 04:15:26;;;;;;;;;;;;;;;22.65;nan;100694.88;5055570;28;19921;-85
2023/08/30 04:17:52;;;;;;;;;;;;;;;22.59;nan;100692.31;5059447;28;19970;-86
2023/08/30 04:20:17;;;;;;;;;;;;;;;22.56;nan;100679.31;5059258;28;19916;-85
2023/08/30 04:22:42;;;;;;;;;;;;;;;22.54;nan;100681.56;5070554;28;19916;-85
2023/08/30 04:25:09;;;;;;;;;;;;;;;22.49;nan;100684.50;5059969;28;19916;-86
2023/08/30 04:27:34;;;;;;;;;;;;;;;22.52;nan;100683.84;5061712;28;19916;-86
2023/08/30 04:30:00;;;;;;;;;;;;;;;22.54;nan;100678.84;5060609;28;19928;-86
2023/08/30 04:32:25;;;;;;;;;;;;;;;22.58;nan;100687.16;5062994;28;19926;-86
2023/08/30 04:34:50;;;;;;;;;;;;;;;22.61;nan;100691.97;5059720;28;20024;-86
2023/08/30 04:37:15;;;;;;;;;;;;;;;22.64;nan;100682.34;5054773;28;19948;-86
2023/08/30 04:39:41;;;;;;;;;;;;;;;22.70;nan;100689.19;5059942;28;19924;-86
2023/08/30 04:42:06;;;;;;;;;;;;;;;22.71;nan;100694.34;5061889;28;19917;-85
2023/08/30 04:44:32;;;;;;;;;;;;;;;22.69;nan;100690.34;5061234;28;19916;-86
2023/08/30 04:46:57;;;;;;;;;;;;;;;22.71;nan;100693.53;5057997;28;19924;-86
2023/08/30 04:49:25;;;;;;;;;;;;;;;22.72;nan;100701.38;5060779;28;19963;-87
2023/08/30 04:51:50;;;;;;;;;;;;;;;22.70;nan;100694.66;5061948;28;19916;-86
2023/08/30 04:54:15;;;;;;;;;;;;;;;22.69;nan;100701.25;5062628;28;19924;-86
2023/08/30 04:56:41;;;;;;;;;;;;;;;22.70;nan;100691.94;5058546;28;20372;-86
2023/08/30 04:59:07;;;;;;;;;;;;;;;22.64;nan;100696.00;5059897;28;19960;-86
2023/08/30 05:01:32;;;;;;;;;;;;;;;22.64;nan;100693.25;5064056;28;19947;-86
2023/08/30 05:03:57;;;;;;;;;;;;;;;22.63;nan;100697.94;5058618;28;19927;-86
2023/08/30 05:06:22;;;;;;;;;;;;;;;22.67;nan;100706.25;5060136;28;19970;-86
2023/08/30 05:08:48;;;;;;;;;;;;;;;22.71;nan;100718.09;5062730;28;19916;-86
2023/08/30 05:11:13;;;;;;;;;;;;;;;22.75;nan;100722.56;5064601;28;19923;-86
2023/08/30 05:13:39;;;;;;;;;;;;;;;22.80;nan;100724.31;5059997;28;20151;-86
2023/08/30 05:16:04;;;;;;;;;;;;;;;22.82;nan;100716.63;5062787;28;20194;-86
2023/08/30 05:18:29;;;;;;;;;;;;;;;22.84;nan;100717.91;5066955;28;19971;-86
2023/08/30 05:20:55;;;;;;;;;;;;;;;22.87;nan;100716.44;5061330;28;19966;-86
2023/08/30 05:23:20;;;;;;;;;;;;;;;22.89;nan;100714.19;5064869;28;19934;-86
2023/08/30 05:25:46;;;;;;;;;;;;;;;22.88;nan;100712.56;5060518;28;20289;-86
2023/08/30 05:28:11;;;;;;;;;;;;;;;22.88;nan;100716.09;5067759;28;19923;-86
2023/08/30 05:30:37;;;;;;;;;;;;;;;22.89;nan;100708.72;5062467;28;20886;-86
2023/08/30 05:33:02;;;;;;;;;;;;;;;22.88;nan;100702.44;5065427;28;19927;-86
2023/08/30 05:35:28;;;;;;;;;;;;;;;22.88;nan;100718.03;5065717;28;20373;-86
2023/08/30 05:37:53;;;;;;;;;;;;;;;22.88;nan;100715.31;5060982;28;20355;-86
2023/08/30 05:40:18;;;;;;;;;;;;;;;22.87;nan;100717.25;5063427;28;21985;-86
2023/08/30 05:42:45;;;;;;;;;;;;;;;22.88;nan;100710.66;5060739;28;19927;-85
2023/08/30 05:45:10;;;;;;;;;;;;;;;22.91;nan;100706.44;5060770;28;19966;-86
2023/08/30 05:47:36;;;;;;;;;;;;;;;22.92;nan;100708.84;5064147;28;19924;-86
2023/08/30 05:50:01;;;;;;;;;;;;;;;22.92;nan;100705.31;5068198;28;19920;-85
2023/08/30 05:52:26;;;;;;;;;;;;;;;22.92;nan;100708.03;5060238;28;20441;-86
2023/08/30 05:54:52;;;;;;;;;;;;;;;22.92;nan;100710.78;5061627;28;19928;-86
2023/08/30 05:57:17;;;;;;;;;;;;;;;22.92;nan;100714.31;5064872;28;20105;-86
2023/08/30 05:59:42;;;;;;;;;;;;;;;22.89;nan;100716.91;5064298;28;19927;-86
2023/08/30 06:02:08;;;;;;;;;;;;;;;22.89;nan;100725.91;5059649;28;20205;-86
2023/08/30 06:04:33;;;;;;;;;;;;;;;22.91;nan;100720.09;5059036;28;20435;-86
2023/08/30 06:06:58;;;;;;;;;;;;;;;22.94;nan;100719.44;5064690;28;19928;-86
2023/08/30 06:09:24;;;;;;;;;;;;;;;22.98;nan;100714.94;5060557;28;19921;-86
2023/08/30 06:11:49;;;;;;;;;;;;;;;23.00;nan;100709.94;5060325;28;19916;-86
2023/08/30 06:14:14;;;;;;;;;;;;;;;23.04;nan;100719.06;5060383;28;19924;-86
2023/08/30 06:16:44;;;;;;;;;;;;;;;23.09;nan;100716.13;5061263;28;19970;-86
2023/08/30 06:19:09;;;;;;;;;;;;;;;23.15;nan;100716.72;5061608;28;19921;-85
2023/08/30 06:21:34;;;;;;;;;;;;;;;23.19;nan;100715.72;5059332;28;19982;-86
2023/08/30 06:24:00;;;;;;;;;;;;;;;23.27;nan;100724.19;5057700;28;19927;-86
2023/08/30 06:26:25;;;;;;;;;;;;;;;23.33;nan;100725.56;5061436;28;19959;-86
2023/08/30 06:28:50;;;;;;;;;;;;;;;23.38;nan;100725.41;5062295;28;19916;-86
2023/08/30 06:31:16;;;;;;;;;;;;;;;23.42;nan;100724.38;5062578;28;19924;-86
2023/08/30 06:33:41;;;;;;;;;;;;;;;23.47;nan;100728.84;5062973;28;19995;-86
2023/08/30 06:36:06;;;;;;;;;;;;;;;23.49;nan;100726.56;5061524;28;19917;-86
2023/08/30 06:38:32;;;;;;;;;;;;;;;23.50;nan;100722.69;5064015;28;20035;-86
2023/08/30 06:40:58;;;;;;;;;;;;;;;23.52;nan;100725.91;5058986;28;19925;-86
2023/08/30 06:43:23;;;;;;;;;;;;;;;23.57;nan;100730.41;5064790;28;19929;-86
2023/08/30 06:45:48;;;;;;;;;;;;;;;23.59;nan;100731.66;5058269;28;19966;-86
2023/08/30 06:48:13;;;;;;;;;;;;;;;23.61;nan;100737.59;5062148;28;20011;-86
2023/08/30 06:50:39;;;;;;;;;;;;;;;23.61;nan;100737.59;5063014;28;19950;-86
2023/08/30 06:53:04;;;;;;;;;;;;;;;23.62;nan;100739.19;5064376;28;20407;-86
2023/08/30 06:55:29;;;;;;;;;;;;;;;23.63;nan;100729.06;5059773;28;19916;-86
2023/08/30 06:57:55;;;;;;;;;;;;;;;23.61;nan;100725.84;5062661;28;20464;-86
2023/08/30 07:00:20;;;;;;;;;;;;;;;23.62;nan;100722.78;5059107;28;19924;-86
2023/08/30 07:02:45;;;;;;;;;;;;;;;23.61;nan;100726.66;5061292;28;19920;-86
2023/08/30 07:05:11;;;;;;;;;;;;;;;23.61;nan;100723.91;5059694;28;19924;-86
2023/08/30 07:07:37;;;;;;;;;;;;;;;23.68;nan;100721.44;5061905;28;20376;-86
2023/08/30 07:10:02;;;;;;;;;;;;;;;23.70;nan;100724.66;5064368;28;19916;-86
2023/08/30 07:12:28;;;;;;;;;;;;;;;23.72;nan;100727.84;5059685;28;20308;-86
2023/08/30 07:14:53;;;;;;;;;;;;;;;23.78;nan;100726.50;5064673;28;20308;-86
2023/08/30 07:17:19;;;;;;;;;;;;;;;23.85;nan;100720.44;5061064;28;20058;-86
2023/08/30 07:19:44;;;;;;;;;;;;;;;23.92;nan;100733.59;5057784;28;20427;-85
2023/08/30 07:22:10;;;;;;;;;;;;;;;23.91;nan;100730.06;5059596;28;19917;-85
2023/08/30 07:24:35;;;;;;;;;;;;;;;23.94;nan;100728.59;5058152;28;19935;-86
2023/08/30 07:27:00;;;;;;;;;;;;;;;23.99;nan;100737.38;5056029;28;19927;-86
2023/08/30 07:29:26;;;;;;;;;;;;;;;24.02;nan;100738.63;5059713;28;20009;-87
2023/08/30 07:31:53;;;;;;;;;;;;;;;24.08;nan;100734.56;5060485;28;20043;-87
2023/08/30 07:34:18;;;;;;;;;;;;;;;24.13;nan;100723.38;5064619;28;19927;-86
2023/08/30 07:36:43;;;;;;;;;;;;;;;24.16;nan;100732.84;5058843;28;19920;-86
2023/08/30 07:39:09;;;;;;;;;;;;;;;24.17;nan;100726.22;5060293;28;19920;-86
2023/08/30 07:41:35;;;;;;;;;;;;;;;24.14;nan;100727.72;5057060;28;20342;-86
2023/08/30 07:44:00;;;;;;;;;;;;;;;24.17;nan;100727.03;5058689;28;19963;-86
2023/08/30 07:46:26;;;;;;;;;;;;;;;24.22;nan;100729.53;5059454;28;19932;-85
2023/08/30 07:48:51;;;;;;;;;;;;;;;24.24;nan;100740.97;5060456;28;19916;-86
2023/08/30 07:51:16;;;;;;;;;;;;;;;24.23;nan;100744.03;5057228;28;19916;-85
2023/08/30 07:53:42;;;;;;;;;;;;;;;24.22;nan;100742.44;5058213;28;19959;-84
2023/08/30 07:56:08;;;;;;;;;;;;;;;24.24;nan;100737.44;5055743;28;20449;-85
2023/08/30 07:58:33;;;;;;;;;;;;;;;24.21;nan;100743.56;5057477;28;19920;-86
2023/08/30 08:00:59;;;;;;;;;;;;;;;24.22;nan;100743.22;5060124;28;19927;-86
2023/08/30 08:03:24;;;;;;;;;;;;;;;24.25;nan;100742.56;5059397;28;19920;-86
2023/08/30 08:05:50;;;;;;;;;;;;;;;24.34;nan;100737.81;5056894;28;19916;-84
2023/08/30 08:08:16;;;;;;;;;;;;;;;24.34;nan;100742.47;5059670;28;19962;-85
2023/08/30 08:10:44;;;;;;;;;;;;;;;24.32;nan;100739.28;5061760;28;19924;-85
2023/08/30 08:13:10;;;;;;;;;;;;;;;24.38;nan;100738.72;5059903;28;19920;-85
2023/08/30 08:15:35;;;;;;;;;;;;;;;24.47;nan;100740.56;5056292;28;19920;-85
2023/08/30 08:18:01;;;;;;;;;;;;;;;24.50;nan;100728.91;5059370;28;19925;-85
2023/08/30 08:20:26;;;;;;;;;;;;;;;24.52;nan;100732.09;5061867;28;19924;-85
2023/08/30 08:22:52;;;;;;;;;;;;;;;24.54;nan;100724.34;5056760;28;19924;-85
2023/08/30 08:25:17;;;;;;;;;;;;;;;24.67;nan;100723.22;5057962;28;19928;-85
2023/08/30 08:27:42;;;;;;;;;;;;;;;24.80;nan;100727.53;5053717;28;20536;-85
2023/08/30 08:30:09;;;;;;;;;;;;;;;24.92;nan;100730.25;5060873;28;19920;-85
2023/08/30 08:32:34;;;;;;;;;;;;;;;24.97;nan;100727.28;5062199;28;19917;-85
2023/08/30 08:35:00;;;;;;;;;;;;;;;25.06;nan;100729.91;5061166;28;20003;-84
2023/08/30 08:37:25;;;;;;;;;;;;;;;25.15;nan;100736.06;5059351;28;19928;-85
2023/08/30 08:39:50;;;;;;;;;;;;;;;25.16;nan;100729.44;5061635;28;19924;-84
2023/08/30 08:42:18;;;;;;;;;;;;;;;25.17;nan;100746.69;5059782;28;19939;-84
2023/08/30 08:44:45;;;;;;;;;;;;;;;25.19;nan;100741.66;5063744;28;19951;-84
2023/08/30 08:47:11;;;;;;;;;;;;;;;25.18;nan;100737.31;5057277;28;19969;-85
2023/08/30 08:49:36;;;;;;;;;;;;;;;25.23;nan;100740.63;5064658;28;20175;-84
2023/08/30 08:52:03;;;;;;;;;;;;;;;25.29;nan;100738.41;5063352;28;19921;-85
2023/08/30 08:54:29;;;;;;;;;;;;;;;25.29;nan;100741.97;5061729;28;19921;-85
2023/08/30 08:56:55;;;;;;;;;;;;;;;25.40;nan;100744.22;5064098;28;19939;-85
2023/08/30 08:59:21;;;;;;;;;;;;;;;25.51;nan;100740.66;5060668;28;19928;-84
2023/08/30 09:01:46;;;;;;;;;;;;;;;25.67;nan;100742.63;5061001;28;19916;-85
2023/08/30 09:04:11;;;;;;;;;;;;;;;25.72;nan;100742.41;5064820;28;19924;-85
2023/08/30 09:06:37;;;;;;;;;;;;;;;25.74;nan;100742.88;5062727;28;19928;-85
2023/08/30 09:09:03;;;;;;;;;;;;;;;25.76;nan;100737.81;5062560;28;19951;-84
2023/08/30 09:11:29;;;;;;;;;;;;;;;25.69;nan;100738.44;5065088;28;19932;-84
2023/08/30 09:13:54;;;;;;;;;;;;;;;25.70;nan;100733.75;5062445;28;19974;-84
2023/08/30 09:16:19;;;;;;;;;;;;;;;25.67;nan;100737.13;5064234;28;19927;-85
2023/08/30 09:18:56;;;;;;;;;;;;;;;25.68;nan;100728.59;5060769;28;19950;-85
2023/08/30 09:21:21;;;;;;;;;;;;;;;25.75;nan;100733.47;5063626;28;19939;-84
2023/08/30 09:23:56;;;;;;;;;;;;;;;25.77;nan;100731.19;5062107;28;20384;-84
2023/08/30 09:26:21;;;;;;;;;;;;;;;25.84;nan;100726.66;5057818;28;20297;-84
2023/08/30 09:28:46;;;;;;;;;;;;;;;25.90;nan;100735.47;5058786;28;19942;-84
2023/08/30 09:31:17;;;;;;;;;;;;;;;25.96;nan;100739.53;5059488;28;19925;-84
2023/08/30 09:33:44;;;;;;;;;;;;;;;26.04;nan;100735.03;5062386;28;20002;-84
2023/08/30 09:36:11;;;;;;;;;;;;;;;26.11;nan;100727.78;5063140;28;20399;-84
2023/08/30 09:38:36;;;;;;;;;;;;;;;26.10;nan;100734.41;5062029;28;20372;-85
2023/08/30 09:41:05;;;;;;;;;;;;;;;26.14;nan;100738.06;5064625;28;19926;-84
2023/08/30 09:43:31;;;;;;;;;;;;;;;26.23;nan;100726.91;5065988;28;19916;-84
2023/08/30 09:45:57;;;;;;;;;;;;;;;26.34;nan;100727.94;5066479;28;19921;-83
2023/08/30 09:48:27;;;;;;;;;;;;;;;26.45;nan;100722.75;5065172;28;20493;-83
2023/08/30 09:50:54;;;;;;;;;;;;;;;26.54;nan;100730.81;5063851;28;20376;-84
2023/08/30 09:53:21;;;;;;;;;;;;;;;26.62;nan;100722.38;5062259;28;20389;-84
2023/08/30 09:55:47;;;;;;;;;;;;;;;26.72;nan;100721.81;5062760;28;19932;-84
2023/08/30 09:58:13;;;;;;;;;;;;;;;26.83;nan;100722.06;5064190;28;20014;-84
2023/08/30 10:00:38;;;;;;;;;;;;;;;26.93;nan;100717.97;5065337;28;20447;-85
2023/08/30 10:03:04;;;;;;;;;;;;;;;26.99;nan;100717.34;5061325;28;19916;-84
2023/08/30 10:05:31;;;;;;;;;;;;;;;27.01;nan;100719.75;5064831;28;19928;-83
2023/08/30 10:07:56;;;;;;;;;;;;;;;27.06;nan;100713.97;5066769;28;19924;-84
2023/08/30 10:10:25;;;;;;;;;;;;;;;27.00;nan;100713.47;5063947;28;20332;-84
2023/08/30 10:12:51;;;;;;;;;;;;;;;27.07;nan;100715.56;5066346;28;20011;-84
2023/08/30 10:15:16;;;;;;;;;;;;;;;27.17;nan;100711.44;5061728;28;20293;-83
2023/08/30 10:17:46;;;;;;;;;;;;;;;27.29;nan;100712.13;5064485;28;20402;-84
2023/08/30 10:20:12;;;;;;;;;;;;;;;27.42;nan;100714.69;5063994;28;19925;-83
2023/08/30 10:22:38;;;;;;;;;;;;;;;27.54;nan;100717.31;5065739;28;20080;-84
2023/08/30 10:25:08;;;;;;;;;;;;;;;27.59;nan;100714.25;5062307;28;19995;-84
2023/08/30 10:27:34;;;;;;;;;;;;;;;27.62;nan;100719.03;5064644;28;19920;-83
2023/08/30 10:30:04;;;;;;;;;;;;;;;27.62;nan;100717.06;5066278;28;19928;-83
2023/08/30 10:32:30;;;;;;;;;;;;;;;27.64;nan;100717.53;5062705;28;20346;-84
2023/08/30 10:34:55;;;;;;;;;;;;;;;27.74;nan;100721.66;5067273;28;19923;-84
2023/08/30 10:37:24;;;;;;;;;;;;;;;27.88;nan;100716.41;5066522;28;20355;-84
2023/08/30 10:39:49;;;;;;;;;;;;;;;28.15;nan;100713.72;5063851;28;19921;-83
2023/08/30 10:42:15;;;;;;;;;;;;;;;28.35;nan;100714.47;5066462;28;19920;-83
2023/08/30 10:44:57;;;;;;;;;;;;;;;28.48;nan;100710.34;5064659;28;19928;-84
2023/08/30 10:47:25;;;;;;;;;;;;;;;28.59;nan;100716.84;5052346;28;20478;-83
2023/08/30 10:49:53;;;;;;;;;;;;;;;28.65;nan;100712.59;5063226;28;20015;-83
2023/08/30 10:52:18;;;;;;;;;;;;;;;28.79;nan;100709.25;5063955;28;19916;-83
2023/08/30 10:54:43;;;;;;;;;;;;;;;29.01;nan;100707.59;5063785;28;20020;-83
2023/08/30 10:57:13;;;;;;;;;;;;;;;29.25;nan;100711.84;5059213;28;20343;-83
2023/08/30 10:59:38;;;;;;;;;;;;;;;29.34;nan;100712.34;5065594;28;19920;-83
2023/08/30 11:02:04;;;;;;;;;;;;;;;29.44;nan;100700.63;5062654;28;19927;-82
2023/08/30 11:04:30;;;;;;;;;;;;;;;29.66;nan;100710.78;5064063;28;19920;-83
2023/08/30 11:06:56;;;;;;;;;;;;;;;29.96;nan;100712.63;5049424;28;19931;-82
2023/08/30 11:09:22;;;;;;;;;;;;;;;30.14;nan;100715.59;5062464;28;19926;-83
2023/08/30 11:11:48;;;;;;;;;;;;;;;30.20;nan;100717.63;5058022;28;19920;-83
2023/08/30 11:14:13;;;;;;;;;;;;;;;30.15;nan;100722.69;5066065;28;20011;-82
2023/08/30 11:16:39;;;;;;;;;;;;;;;30.08;nan;100713.19;5060625;28;19935;-82
2023/08/30 11:19:05;;;;;;;;;;;;;;;30.06;nan;100714.75;5058667;28;20026;-82
2023/08/30 11:21:32;;;;;;;;;;;;;;;30.11;nan;100710.84;5064819;28;19920;-81
2023/08/30 11:23:57;;;;;;;;;;;;;;;30.19;nan;100709.72;5060043;28;19930;-81
2023/08/30 11:26:22;;;;;;;;;;;;;;;30.24;nan;100701.88;5062481;28;19916;-81
2023/08/30 11:28:49;;;;;;;;;;;;;;;30.26;nan;100707.03;5057926;28;19926;-81
2023/08/30 11:31:17;;;;;;;;;;;;;;;30.30;nan;100697.56;5057685;28;19963;-81
2023/08/30 11:33:49;;;;;;;;;;;;;;;30.28;nan;100705.44;5058351;28;20019;-80
2023/08/30 11:36:15;;;;;;;;;;;;;;;30.37;nan;100694.88;5056793;28;19921;-80
2023/08/30 11:38:40;;;;;;;;;;;;;;;30.53;nan;100702.88;5059939;28;19924;-82
2023/08/30 11:41:06;;;;;;;;;;;;;;;30.55;nan;100697.75;5062923;28;19920;-82
2023/08/30 11:43:31;;;;;;;;;;;;;;;30.54;nan;100701.72;5060541;28;19991;-82
2023/08/30 11:45:57;;;;;;;;;;;;;;;30.45;nan;100703.22;5061390;28;19927;-82
2023/08/30 11:48:22;;;;;;;;;;;;;;;30.33;nan;100701.53;5066090;28;20304;-82
2023/08/30 11:50:48;;;;;;;;;;;;;;;30.23;nan;100708.59;5061930;28;20355;-80
2023/08/30 11:53:13;;;;;;;;;;;;;;;30.16;nan;100708.50;5063803;28;19920;-83
2023/08/30 11:55:38;;;;;;;;;;;;;;;30.16;nan;100697.44;5060458;28;19917;-82
2023/08/30 11:58:04;;;;;;;;;;;;;;;30.22;nan;100697.91;5056674;28;19943;-83
2023/08/30 12:00:32;;;;;;;;;;;;;;;30.31;nan;100687.31;5060640;28;19924;-82
2023/08/30 12:02:58;;;;;;;;;;;;;;;30.44;nan;100690.56;5058964;28;19936;-82
2023/08/30 12:05:23;;;;;;;;;;;;;;;30.49;nan;100692.97;5057913;28;19943;-82
2023/08/30 12:07:48;;;;;;;;;;;;;;;30.52;nan;100693.00;5063608;28;19928;-83
2023/08/30 12:10:17;;;;;;;;;;;;;;;30.56;nan;100695.78;5065360;28;19920;-82
2023/08/30 12:12:45;;;;;;;;;;;;;;;30.56;nan;100693.03;5060910;28;20372;-83
2023/08/30 12:15:11;;;;;;;;;;;;;;;30.55;nan;100699.75;5061511;28;19924;-82
2023/08/30 12:17:37;;;;;;;;;;;;;;;30.51;nan;100691.41;5065172;28;20335;-83
2023/08/30 12:20:03;;;;;;;;;;;;;;;30.43;nan;100692.53;5061275;28;20002;-83
2023/08/30 12:22:41;;;;;;;;;;;;;;;30.30;nan;100696.78;5060655;28;20752;-83
2023/08/30 12:25:19;;;;;;;;;;;;;;;30.28;nan;100688.88;5064557;28;19929;-83
2023/08/30 12:27:45;;;;;;;;;;;;;;;30.32;nan;100688.91;5059814;28;19924;-82
2023/08/30 12:30:10;;;;;;;;;;;;;;;30.22;nan;100690.41;5062205;28;20002;-80
2023/08/30 12:32:36;;;;;;;;;;;;;;;30.18;nan;100697.88;5060068;28;20376;-80
2023/08/30 12:35:01;;;;;;;;;;;;;;;30.24;nan;100699.13;5059744;28;20360;-81
2023/08/30 12:37:26;;;;;;;;;;;;;;;30.28;nan;100688.88;5059754;28;19923;-82
2023/08/30 12:39:51;;;;;;;;;;;;;;;30.40;nan;100693.31;5053310;28;19928;-80
2023/08/30 12:42:17;;;;;;;;;;;;;;;30.50;nan;100697.31;5058831;28;19917;-81
2023/08/30 12:44:42;;;;;;;;;;;;;;;30.50;nan;100689.03;5057334;28;20043;-81
2023/08/30 12:47:07;;;;;;;;;;;;;;;30.49;nan;100692.97;5060014;28;20304;-81
2023/08/30 12:49:33;;;;;;;;;;;;;;;30.31;nan;100677.03;5058256;28;19916;-81
2023/08/30 12:51:58;;;;;;;;;;;;;;;30.26;nan;100682.94;5059942;28;19936;-81